Pagrindinis puslapis
METAR-TAF:

METAR-TAF

Oro uostai :

Latakija, Sirija

platuma: 35-32N, ilguma: 035-46E, Aukštis: 7 m

Dabartinis oras

Ataskaita buvo paskelbta 37 minutes, ne 05:00 UTC
Vėjas 6 kt iš Pietryčių
Temperatūra 28°C
Drėgmė 70%
Slėgis 1006 hPa
Matomumas 10 km arba daugiau
Mažai debesys ne aukštis 2600 ft
Išsisklaidę debesys ne aukštis 3000 ft

METAR: OSLK 110500Z 13006KT 9999 FEW026 SCT030 28/22 Q1006

Laikas: 08:37 (05:37 UTC)

Prognozė

Ataskaita buvo paskelbta 7 valandos ir 37 minutes, ne 22:00 UTC
Prognozė galioja nuo 11 metu 00 UTC su 11 metu 24 UTC
Vėjas 10 kt iš Pietų/Pietvakarių su gūsio iki 25 kt
Matomumas 10 km arba daugiau
Mažai debesys ne aukštis 2600 ft, aukštai iškilę kamuoliniai debesys.
Išsisklaidę debesys ne aukštis 3000 ft
Laikinai
nuo 11 metu 00 UTC su 11 metu 08 UTC
Tapsmas
nuo 11 metu 20 UTC su 11 metu 22 UTC
Vėjas 10 kt iš Rytų/Pietryčių
Matomumas 10 km arba daugiau
Išsisklaidę debesys ne aukštis 3000 ft

TAF: OSLK 102200Z 1100/1124 20010G25KT 9999 FEW026TCU SCT030 BROP30 TEMPO 1100/1108 4000RA BECMG 1120/1122 12010KT 9999 SCT030

Orai ataskaitas ir orų prognozės (METAR, TAF).

turimą stotys yra geltonos ir raudonos taškus žemėlapyje.

Perkelti pele per norėdami pamatyti stoties vardą.

Tada spustelėkite, norėdami matyti oro stebėjimo ir prognozės.

Norėdami pakeisti žemėlapį: spustelėkite ant žalios mygtukų su juodo kryžiaus žemyn,; žalią mygtuką su brūkšneliu, jei norite nutolinti; arba žalių rodyklių gretimoms žemėlapius.


METAR-TAF: